Time;durP1;ratioP1;P1;durP2;ratioP2;P2;SDS_P1;SDS_P2;PMS_P1;PMS_P2;Temp;Humidity;BMP_temperature;BMP_pressure;BME280_temperature;BME280_humidity;BME280_pressure;Samples;Min_cycle;Max_cycle;Signal;HPM_P1;HPM_P2
2024/01/18 00:00:47;;;;;;;3.85;2.00;;;8.80;99.90;;;;;;5009666;28;20034;-72
2024/01/18 00:03:12;;;;;;;2.67;1.73;;;8.70;99.90;;;;;;5007859;28;20037;-74
2024/01/18 00:05:38;;;;;;;2.42;1.48;;;8.70;99.90;;;;;;5009361;28;20041;-74
2024/01/18 00:08:04;;;;;;;3.65;1.77;;;8.70;99.90;;;;;;5008762;28;20527;-74
2024/01/18 00:10:31;;;;;;;2.92;1.45;;;8.70;99.90;;;;;;5009207;28;20051;-73
2024/01/18 00:12:57;;;;;;;4.43;1.60;;;8.70;99.90;;;;;;5006370;28;20049;-73
2024/01/18 00:15:22;;;;;;;3.42;1.83;;;8.70;99.90;;;;;;5003444;28;20042;-74
2024/01/18 00:17:48;;;;;;;4.85;2.35;;;8.60;99.90;;;;;;4995125;28;20034;-74
2024/01/18 00:20:14;;;;;;;5.40;2.40;;;8.60;99.90;;;;;;5009273;28;20036;-73
2024/01/18 00:22:40;;;;;;;4.88;2.67;;;8.50;99.90;;;;;;4999430;28;20037;-74
2024/01/18 00:25:07;;;;;;;4.15;2.58;;;8.50;99.90;;;;;;5003131;28;20846;-73
2024/01/18 00:27:32;;;;;;;5.85;2.70;;;8.40;99.90;;;;;;5007458;28;20099;-73
2024/01/18 00:29:58;;;;;;;3.85;2.20;;;8.40;99.90;;;;;;5007620;28;20030;-74
2024/01/18 00:32:24;;;;;;;4.03;2.28;;;8.40;99.90;;;;;;5009856;28;20040;-74
2024/01/18 00:34:50;;;;;;;3.97;2.10;;;8.40;99.90;;;;;;5004948;28;20133;-73
2024/01/18 00:37:16;;;;;;;4.32;2.13;;;8.30;99.90;;;;;;5009322;28;20033;-73
2024/01/18 00:39:42;;;;;;;4.28;2.28;;;8.20;99.90;;;;;;5005949;28;20437;-73
2024/01/18 00:42:09;;;;;;;4.20;2.30;;;8.20;99.90;;;;;;5004892;28;20057;-73
2024/01/18 00:44:34;;;;;;;4.88;2.50;;;8.10;99.90;;;;;;5009811;28;20062;-73
2024/01/18 00:47:00;;;;;;;3.47;1.88;;;8.10;99.90;;;;;;5004008;28;20029;-73
2024/01/18 00:49:25;;;;;;;3.38;1.58;;;8.00;99.90;;;;;;5004165;28;20037;-73
2024/01/18 00:51:51;;;;;;;5.15;1.70;;;8.00;99.90;;;;;;4989907;28;20034;-73
2024/01/18 00:54:17;;;;;;;3.42;1.80;;;8.00;99.90;;;;;;5005152;28;20030;-74
2024/01/18 00:56:42;;;;;;;4.53;1.80;;;8.00;99.90;;;;;;5006530;28;20058;-74
2024/01/18 00:59:08;;;;;;;2.75;1.55;;;8.00;99.90;;;;;;5005599;28;20061;-74
2024/01/18 01:01:34;;;;;;;3.20;1.38;;;7.90;99.90;;;;;;5003491;28;20036;-73
2024/01/18 01:03:59;;;;;;;2.90;1.50;;;8.00;99.90;;;;;;5006431;28;20038;-73
2024/01/18 01:06:25;;;;;;;3.97;1.50;;;8.00;99.90;;;;;;5007266;28;20053;-74
2024/01/18 01:08:51;;;;;;;1.95;1.13;;;8.00;99.90;;;;;;5004211;28;20029;-73
2024/01/18 01:11:17;;;;;;;3.03;1.20;;;8.10;99.90;;;;;;5009176;28;20072;-74
2024/01/18 01:13:44;;;;;;;2.20;1.20;;;8.10;99.90;;;;;;5008509;28;20084;-73
2024/01/18 01:16:10;;;;;;;2.88;1.25;;;8.20;99.90;;;;;;5003334;28;20139;-73
2024/01/18 01:18:36;;;;;;;2.38;0.90;;;8.10;99.90;;;;;;5004720;28;20121;-74
2024/01/18 01:21:02;;;;;;;2.08;1.10;;;8.10;99.90;;;;;;5003139;28;20045;-74
2024/01/18 01:23:28;;;;;;;3.65;1.58;;;8.20;99.90;;;;;;5006296;28;20105;-73
2024/01/18 01:25:53;;;;;;;2.33;1.23;;;8.10;99.90;;;;;;4997315;28;20113;-73
2024/01/18 01:28:19;;;;;;;2.05;0.98;;;8.10;99.90;;;;;;5007458;28;20367;-74
2024/01/18 01:30:45;;;;;;;6.43;1.33;;;8.10;99.90;;;;;;5008677;28;20049;-73
2024/01/18 01:33:10;;;;;;;2.20;1.10;;;8.00;99.90;;;;;;4993912;28;20140;-73
2024/01/18 01:35:36;;;;;;;2.30;1.10;;;8.00;99.90;;;;;;5007585;28;20370;-73
2024/01/18 01:38:01;;;;;;;2.20;1.10;;;7.90;99.90;;;;;;5007936;28;20402;-74
2024/01/18 01:40:27;;;;;;;2.10;1.20;;;8.00;99.90;;;;;;5008859;28;20045;-74
2024/01/18 01:42:52;;;;;;;2.35;1.40;;;8.00;99.90;;;;;;5006793;28;20050;-73
2024/01/18 01:45:18;;;;;;;3.55;0.85;;;8.00;99.90;;;;;;5008053;28;20045;-75
2024/01/18 01:47:44;;;;;;;2.00;0.85;;;8.00;99.90;;;;;;5007839;28;20038;-73
2024/01/18 01:50:11;;;;;;;2.08;0.90;;;8.00;99.90;;;;;;5007584;28;20022;-73
2024/01/18 01:52:38;;;;;;;2.58;1.10;;;8.00;99.90;;;;;;5008499;28;20037;-74
2024/01/18 01:55:07;;;;;;;1.85;0.95;;;8.00;99.90;;;;;;5007703;28;20034;-74
2024/01/18 01:57:33;;;;;;;1.58;0.80;;;8.10;99.90;;;;;;5007117;28;20563;-73
2024/01/18 01:59:59;;;;;;;1.42;0.70;;;8.10;99.90;;;;;;5007932;28;20026;-74
2024/01/18 02:02:25;;;;;;;1.90;0.88;;;8.20;99.90;;;;;;5004078;28;20054;-73
2024/01/18 02:04:52;;;;;;;1.77;0.85;;;8.30;99.90;;;;;;5005616;28;20065;-70
2024/01/18 02:07:19;;;;;;;1.30;0.65;;;8.30;99.90;;;;;;5007872;28;20048;-73
2024/01/18 02:09:46;;;;;;;3.15;0.88;;;8.30;99.90;;;;;;5023520;28;20022;-74
2024/01/18 02:12:13;;;;;;;1.42;0.80;;;8.30;99.90;;;;;;5007417;28;20029;-73
2024/01/18 02:14:39;;;;;;;1.77;0.82;;;8.30;99.90;;;;;;5008675;28;20549;-74
2024/01/18 02:17:06;;;;;;;2.25;1.00;;;8.20;99.90;;;;;;5010039;28;20390;-73
2024/01/18 02:19:32;;;;;;;2.47;1.02;;;8.10;99.90;;;;;;5012404;28;20041;-74
2024/01/18 02:21:59;;;;;;;1.95;1.00;;;8.00;99.90;;;;;;5005780;28;20578;-73
2024/01/18 02:24:32;;;;;;;1.85;1.00;;;8.00;99.90;;;;;;5006869;28;20025;-73
2024/01/18 02:26:58;;;;;;;2.20;0.98;;;8.00;99.90;;;;;;4996279;28;20037;-73
2024/01/18 02:29:24;;;;;;;4.28;1.20;;;8.00;99.90;;;;;;4993569;28;20038;-73
2024/01/18 02:31:50;;;;;;;3.35;1.00;;;8.10;99.90;;;;;;5010404;28;20030;-73
2024/01/18 02:34:17;;;;;;;2.13;0.90;;;8.10;99.90;;;;;;4998216;28;20034;-73
2024/01/18 02:36:44;;;;;;;1.75;0.90;;;8.00;99.90;;;;;;5007225;28;20033;-73
2024/01/18 02:39:10;;;;;;;2.25;1.02;;;8.00;99.90;;;;;;4991592;28;20196;-73
2024/01/18 02:41:37;;;;;;;1.98;1.02;;;8.00;99.90;;;;;;5005945;28;20030;-74
2024/01/18 02:44:02;;;;;;;1.40;1.00;;;7.90;99.90;;;;;;5003638;28;20050;-74
2024/01/18 02:46:34;;;;;;;1.80;0.90;;;7.90;99.90;;;;;;5007336;28;20477;-74
2024/01/18 02:49:00;;;;;;;2.28;0.95;;;7.90;99.90;;;;;;4997578;28;20117;-73
2024/01/18 02:51:26;;;;;;;4.80;1.05;;;7.90;99.90;;;;;;5004314;28;20034;-73
2024/01/18 02:53:52;;;;;;;3.45;1.45;;;7.80;99.90;;;;;;5009046;28;20038;-71
2024/01/18 02:56:19;;;;;;;4.00;1.55;;;7.70;99.90;;;;;;5003936;28;20030;-74
2024/01/18 02:58:44;;;;;;;1.52;0.90;;;7.60;99.90;;;;;;4998253;28;20089;-73
2024/01/18 03:01:10;;;;;;;1.98;1.30;;;7.50;99.90;;;;;;4999838;28;20445;-73
2024/01/18 03:03:36;;;;;;;1.58;0.90;;;7.50;99.90;;;;;;5008826;28;20029;-73
2024/01/18 03:06:02;;;;;;;2.60;1.38;;;7.50;99.90;;;;;;5002008;28;20116;-74
2024/01/18 03:08:27;;;;;;;3.47;1.40;;;7.50;99.90;;;;;;5008545;28;20537;-73
2024/01/18 03:10:53;;;;;;;2.55;1.42;;;7.30;99.90;;;;;;5010509;28;20030;-73
2024/01/18 03:13:19;;;;;;;3.42;1.17;;;7.10;99.90;;;;;;5003362;28;20037;-73
2024/01/18 03:15:44;;;;;;;2.85;0.90;;;7.10;99.90;;;;;;5002765;28;20026;-73
2024/01/18 03:18:10;;;;;;;2.67;1.35;;;7.30;99.90;;;;;;5009698;28;20041;-73
2024/01/18 03:20:35;;;;;;;2.70;1.17;;;7.50;99.90;;;;;;5004335;28;20042;-76
2024/01/18 03:23:01;;;;;;;2.30;1.13;;;7.70;99.90;;;;;;5003657;28;20040;-76
2024/01/18 03:25:27;;;;;;;3.40;1.58;;;7.80;99.90;;;;;;5009123;28;20026;-75
2024/01/18 03:27:53;;;;;;;4.60;1.33;;;7.90;99.90;;;;;;5007414;28;20466;-74
2024/01/18 03:30:19;;;;;;;2.60;1.10;;;7.90;99.90;;;;;;5009382;28;20057;-76
2024/01/18 03:32:45;;;;;;;4.13;1.23;;;7.90;99.90;;;;;;5008807;28;20034;-77
2024/01/18 03:35:10;;;;;;;2.90;1.10;;;8.00;99.90;;;;;;5013999;28;20029;-75
2024/01/18 03:37:36;;;;;;;1.85;0.80;;;8.00;99.90;;;;;;5009891;28;20037;-74
2024/01/18 03:40:02;;;;;;;4.55;1.40;;;8.10;99.90;;;;;;5008737;28;20033;-76
2024/01/18 03:42:28;;;;;;;5.43;1.50;;;8.20;99.90;;;;;;5008168;28;20034;-75
2024/01/18 03:44:53;;;;;;;6.28;1.40;;;8.10;99.90;;;;;;5006592;28;20037;-76
2024/01/18 03:47:20;;;;;;;2.95;1.20;;;8.10;99.90;;;;;;5007664;28;20053;-76
2024/01/18 03:49:45;;;;;;;3.03;1.40;;;8.10;99.90;;;;;;5009760;28;20132;-77
2024/01/18 03:52:12;;;;;;;2.83;1.25;;;7.90;99.90;;;;;;5009603;28;20079;-76
2024/01/18 03:54:38;;;;;;;2.63;1.13;;;7.90;99.90;;;;;;5009780;28;20029;-76
2024/01/18 03:57:04;;;;;;;8.75;1.52;;;7.90;99.90;;;;;;5008517;28;20042;-75
2024/01/18 03:59:29;;;;;;;4.32;1.20;;;7.80;99.90;;;;;;5010214;28;20399;-75
2024/01/18 04:01:56;;;;;;;5.32;1.55;;;7.80;99.90;;;;;;5010371;28;20034;-74
2024/01/18 04:04:23;;;;;;;2.67;1.23;;;7.80;99.90;;;;;;5009100;28;20482;-76
2024/01/18 04:06:49;;;;;;;5.13;2.30;;;7.80;99.90;;;;;;5008511;28;20030;-76
2024/01/18 04:09:14;;;;;;;3.28;1.60;;;7.80;99.90;;;;;;5028501;28;20111;-76
2024/01/18 04:11:41;;;;;;;2.53;1.38;;;7.80;99.90;;;;;;5028809;28;20084;-75
2024/01/18 04:14:07;;;;;;;3.80;1.77;;;7.80;99.90;;;;;;5029488;28;20032;-76
2024/01/18 04:16:34;;;;;;;4.10;1.88;;;7.80;99.90;;;;;;5010234;28;20398;-75
2024/01/18 04:19:00;;;;;;;3.00;1.58;;;7.80;99.90;;;;;;5009643;28;20160;-72
2024/01/18 04:21:25;;;;;;;4.93;2.03;;;7.80;99.90;;;;;;5010154;28;20492;-76
2024/01/18 04:23:51;;;;;;;4.25;2.17;;;7.80;99.90;;;;;;5010114;28;20022;-75
2024/01/18 04:26:17;;;;;;;4.25;1.88;;;7.70;99.90;;;;;;5009525;28;20109;-75
2024/01/18 04:28:43;;;;;;;3.00;1.77;;;7.70;99.90;;;;;;5010135;28;20470;-76
2024/01/18 04:31:08;;;;;;;4.22;2.13;;;7.60;99.90;;;;;;5000929;28;20650;-75
2024/01/18 04:33:34;;;;;;;3.63;1.80;;;7.60;99.90;;;;;;4990389;28;20113;-75
2024/01/18 04:35:59;;;;;;;8.05;2.13;;;7.70;99.90;;;;;;5003413;28;20127;-73
2024/01/18 04:38:25;;;;;;;5.82;1.65;;;7.70;99.90;;;;;;5008467;28;20038;-76
2024/01/18 04:40:51;;;;;;;5.20;1.98;;;7.60;99.90;;;;;;5008807;28;20133;-74
2024/01/18 04:43:17;;;;;;;3.65;2.00;;;7.60;99.90;;;;;;5008870;28;20041;-75
2024/01/18 04:45:42;;;;;;;5.03;1.90;;;7.50;99.90;;;;;;5007695;28;20176;-76
2024/01/18 04:48:09;;;;;;;4.05;1.90;;;7.50;99.90;;;;;;5007450;28;20045;-76
2024/01/18 04:50:34;;;;;;;6.15;2.25;;;7.50;99.90;;;;;;5009682;28;20029;-75
2024/01/18 04:53:00;;;;;;;5.55;2.38;;;7.40;99.90;;;;;;5006446;28;20030;-73
2024/01/18 04:55:26;;;;;;;9.27;2.72;;;7.30;99.90;;;;;;5007175;28;20116;-76
2024/01/18 04:57:52;;;;;;;6.53;3.30;;;7.20;99.90;;;;;;4995004;28;20117;-74
2024/01/18 05:00:18;;;;;;;4.82;1.98;;;7.10;99.90;;;;;;5009687;28;20025;-75
2024/01/18 05:02:44;;;;;;;6.70;2.60;;;7.10;99.90;;;;;;5009302;28;20037;-76
2024/01/18 05:05:10;;;;;;;11.18;2.63;;;7.20;99.90;;;;;;5007226;28;20092;-76
2024/01/18 05:07:37;;;;;;;6.40;2.90;;;7.20;99.90;;;;;;5004706;28;20155;-75
2024/01/18 05:10:04;;;;;;;6.68;3.20;;;7.20;99.90;;;;;;5007097;28;20041;-73
2024/01/18 05:12:31;;;;;;;7.53;3.20;;;7.20;99.90;;;;;;5009059;28;20397;-76
2024/01/18 05:14:56;;;;;;;5.68;2.97;;;7.10;99.90;;;;;;5009727;28;20445;-75
2024/01/18 05:17:22;;;;;;;6.50;2.85;;;7.00;99.90;;;;;;5007758;28;20065;-76
2024/01/18 05:19:48;;;;;;;5.53;2.65;;;7.00;99.90;;;;;;4999013;28;20065;-76
2024/01/18 05:22:14;;;;;;;10.00;2.97;;;6.80;99.90;;;;;;4988864;28;20113;-75
2024/01/18 05:24:40;;;;;;;4.85;2.60;;;6.80;99.90;;;;;;4989677;28;20030;-75
2024/01/18 05:27:07;;;;;;;6.55;2.47;;;6.70;99.90;;;;;;5000492;28;20048;-75
2024/01/18 05:29:33;;;;;;;4.55;2.00;;;6.80;99.90;;;;;;5007685;28;20080;-75
2024/01/18 05:31:58;;;;;;;5.20;2.45;;;6.80;99.90;;;;;;5009626;28;20034;-74
2024/01/18 05:34:24;;;;;;;5.90;2.97;;;6.90;99.90;;;;;;5008080;28;20475;-75
2024/01/18 05:36:50;;;;;;;5.53;2.33;;;7.00;99.90;;;;;;5006866;28;20033;-76
2024/01/18 05:39:15;;;;;;;4.63;2.58;;;6.90;99.90;;;;;;5008206;28;20478;-76
2024/01/18 05:41:41;;;;;;;5.35;2.80;;;6.90;99.90;;;;;;5009069;28;20021;-74
2024/01/18 05:44:06;;;;;;;4.75;2.50;;;6.90;99.90;;;;;;5007618;28;20061;-73
2024/01/18 05:46:32;;;;;;;6.25;2.22;;;6.90;99.90;;;;;;5008118;28;20042;-76
2024/01/18 05:48:58;;;;;;;9.68;2.83;;;6.80;99.90;;;;;;5009389;28;20386;-75
2024/01/18 05:51:23;;;;;;;4.80;2.70;;;6.80;99.90;;;;;;5012178;28;20103;-75
2024/01/18 05:53:49;;;;;;;5.63;2.78;;;6.90;99.90;;;;;;5011566;28;20033;-75
2024/01/18 05:56:14;;;;;;;7.78;3.30;;;6.80;99.90;;;;;;5011430;28;20033;-75
2024/01/18 05:58:40;;;;;;;125.50;5.75;;;6.80;99.90;;;;;;5011639;28;20061;-75
2024/01/18 06:01:06;;;;;;;5.50;3.30;;;6.90;99.90;;;;;;5002935;28;20475;-72
2024/01/18 06:03:32;;;;;;;6.90;3.42;;;6.80;99.90;;;;;;5012615;28;20037;-76
2024/01/18 06:06:00;;;;;;;6.05;2.92;;;6.80;99.90;;;;;;5013011;28;20032;-74
2024/01/18 06:08:26;;;;;;;6.43;3.60;;;6.80;99.90;;;;;;5011151;28;20049;-75
2024/01/18 06:10:53;;;;;;;7.70;3.13;;;6.80;99.90;;;;;;5011692;28;20029;-75
2024/01/18 06:13:20;;;;;;;6.03;3.47;;;6.80;99.90;;;;;;5010091;28;20058;-75
2024/01/18 06:15:45;;;;;;;7.45;3.83;;;6.80;99.90;;;;;;5001573;28;20042;-73
2024/01/18 06:18:11;;;;;;;8.75;3.90;;;6.80;99.90;;;;;;5008360;28;20351;-74
2024/01/18 06:20:37;;;;;;;7.53;3.95;;;6.80;99.90;;;;;;5005256;28;20068;-75
2024/01/18 06:23:02;;;;;;;7.38;4.10;;;6.80;99.90;;;;;;5004909;28;20482;-75
2024/01/18 06:25:28;;;;;;;8.85;4.45;;;6.80;99.90;;;;;;5004856;28;20033;-75
2024/01/18 06:27:54;;;;;;;10.88;5.22;;;6.80;99.90;;;;;;5004931;28;20544;-75
2024/01/18 06:30:19;;;;;;;8.98;4.85;;;6.80;99.90;;;;;;4998189;28;20046;-75
2024/01/18 06:32:45;;;;;;;8.32;4.78;;;6.80;99.90;;;;;;5024841;28;20371;-76
2024/01/18 06:35:11;;;;;;;10.05;5.07;;;6.80;99.90;;;;;;5008546;28;20056;-75
2024/01/18 06:37:38;;;;;;;8.40;4.30;;;6.80;99.90;;;;;;5002686;28;20029;-74
2024/01/18 06:40:04;;;;;;;8.77;4.47;;;6.80;99.90;;;;;;4995786;28;20487;-74
2024/01/18 06:42:31;;;;;;;10.82;5.50;;;6.70;99.90;;;;;;5006403;28;20084;-75
2024/01/18 06:44:57;;;;;;;8.00;4.40;;;6.70;99.90;;;;;;4996656;28;20034;-75
2024/01/18 06:47:22;;;;;;;7.38;3.15;;;6.70;99.90;;;;;;5004410;28;20103;-74
2024/01/18 06:49:48;;;;;;;6.50;3.00;;;6.70;99.90;;;;;;5005627;28;20628;-75
2024/01/18 06:52:14;;;;;;;6.55;3.20;;;6.80;99.90;;;;;;5009163;28;20164;-75
2024/01/18 06:54:42;;;;;;;7.88;3.08;;;6.80;99.90;;;;;;5002712;28;20383;-75
2024/01/18 06:57:08;;;;;;;10.30;4.15;;;6.80;99.90;;;;;;5002388;28;20040;-73
2024/01/18 06:59:34;;;;;;;9.25;4.18;;;6.80;99.90;;;;;;4998413;28;20043;-75
2024/01/18 07:01:59;;;;;;;12.60;5.55;;;6.80;99.90;;;;;;5006299;28;20125;-75
2024/01/18 07:04:25;;;;;;;13.65;5.28;;;6.80;99.90;;;;;;5007109;28;20072;-75
2024/01/18 07:06:51;;;;;;;12.30;5.43;;;6.80;99.90;;;;;;5003462;28;20026;-73
2024/01/18 07:09:16;;;;;;;11.65;4.55;;;6.70;99.90;;;;;;4997839;28;20080;-74
2024/01/18 07:11:42;;;;;;;30.65;11.65;;;6.70;99.90;;;;;;5003896;28;20061;-76
2024/01/18 07:14:08;;;;;;;24.67;9.25;;;6.70;99.90;;;;;;5008103;28;20048;-74
2024/01/18 07:16:33;;;;;;;38.90;15.35;;;6.70;99.90;;;;;;5007549;28;20057;-75
2024/01/18 07:18:59;;;;;;;22.45;8.30;;;6.70;99.90;;;;;;4998601;28;20112;-74
2024/01/18 07:21:25;;;;;;;18.38;7.10;;;6.70;99.90;;;;;;5004452;28;20057;-74
2024/01/18 07:23:50;;;;;;;31.15;8.32;;;6.70;99.90;;;;;;5009920;28;20021;-74
2024/01/18 07:26:17;;;;;;;28.20;8.40;;;6.70;99.90;;;;;;4997566;28;20041;-75
2024/01/18 07:28:43;;;;;;;12.35;5.60;;;6.60;99.90;;;;;;5001267;28;20033;-75
2024/01/18 07:31:08;;;;;;;7.82;2.92;;;6.40;99.90;;;;;;5002710;28;20044;-75
2024/01/18 07:33:34;;;;;;;6.13;2.85;;;6.30;99.90;;;;;;5008734;28;20032;-73
2024/01/18 07:36:00;;;;;;;24.63;7.53;;;6.40;99.90;;;;;;5001281;28;20450;-74
2024/01/18 07:38:25;;;;;;;21.10;8.43;;;6.40;99.90;;;;;;5003815;28;20463;-75
2024/01/18 07:40:51;;;;;;;23.25;10.07;;;6.40;99.90;;;;;;5003938;28;20026;-75
2024/01/18 07:43:17;;;;;;;21.25;8.85;;;6.30;99.90;;;;;;5002331;28;20487;-75
2024/01/18 07:45:43;;;;;;;21.83;8.82;;;6.30;99.90;;;;;;5004772;28;20034;-74
2024/01/18 07:48:09;;;;;;;12.50;6.30;;;6.30;99.90;;;;;;5022345;28;20508;-74
2024/01/18 07:50:34;;;;;;;11.27;5.80;;;6.40;99.90;;;;;;5005072;28;20041;-75
2024/01/18 07:53:00;;;;;;;7.15;3.83;;;6.40;99.90;;;;;;5008534;28;20026;-74
2024/01/18 07:55:26;;;;;;;16.50;6.53;;;6.40;99.90;;;;;;4997522;28;22078;-75
2024/01/18 07:57:52;;;;;;;22.10;8.35;;;6.40;99.90;;;;;;4998641;28;20035;-74
2024/01/18 08:00:18;;;;;;;17.58;7.70;;;6.30;99.90;;;;;;4998666;28;20037;-74
2024/01/18 08:02:43;;;;;;;38.00;10.10;;;6.30;99.90;;;;;;5007396;28;20041;-75
2024/01/18 08:05:09;;;;;;;28.83;11.07;;;6.20;99.90;;;;;;5002262;28;20026;-75
2024/01/18 08:07:35;;;;;;;77.28;12.23;;;6.00;99.90;;;;;;5006314;28;20386;-75
2024/01/18 08:10:01;;;;;;;21.30;9.73;;;5.90;99.90;;;;;;4990736;28;20057;-75
2024/01/18 08:12:26;;;;;;;19.02;9.38;;;5.90;99.90;;;;;;4994580;28;20390;-77
2024/01/18 08:14:52;;;;;;;17.08;9.18;;;5.80;99.90;;;;;;5009565;28;20037;-75
2024/01/18 08:17:18;;;;;;;448.10;26.15;;;5.80;99.90;;;;;;5008226;28;20022;-74
2024/01/18 08:19:43;;;;;;;27.02;10.70;;;5.80;99.90;;;;;;5007886;28;20040;-77
2024/01/18 08:22:11;;;;;;;39.85;12.68;;;5.60;99.90;;;;;;5002072;28;20030;-75
2024/01/18 08:24:37;;;;;;;30.83;13.20;;;5.60;99.90;;;;;;4992003;28;20041;-75
2024/01/18 08:27:03;;;;;;;26.15;11.77;;;5.60;99.90;;;;;;4990493;28;20374;-75
2024/01/18 08:29:29;;;;;;;21.92;10.15;;;5.60;99.90;;;;;;5002291;28;20037;-76
2024/01/18 08:31:54;;;;;;;20.15;10.32;;;5.60;99.90;;;;;;5006304;28;20030;-74
2024/01/18 08:34:20;;;;;;;53.97;12.98;;;5.70;99.90;;;;;;5008053;28;20034;-74
2024/01/18 08:36:46;;;;;;;53.33;11.55;;;5.70;99.90;;;;;;5004649;28;20539;-73
2024/01/18 08:39:11;;;;;;;21.60;10.45;;;5.70;99.90;;;;;;4992175;28;20699;-74
2024/01/18 08:41:37;;;;;;;12.82;7.38;;;5.80;99.90;;;;;;5008865;28;20045;-75
2024/01/18 08:44:02;;;;;;;15.65;8.02;;;5.60;99.90;;;;;;5007959;28;20406;-74
2024/01/18 08:46:28;;;;;;;11.40;5.35;;;5.60;99.90;;;;;;5008790;28;20034;-74
2024/01/18 08:48:54;;;;;;;12.80;6.80;;;5.60;99.90;;;;;;5006868;28;20030;-74
2024/01/18 08:51:19;;;;;;;8.00;4.43;;;5.60;99.90;;;;;;4999674;28;20692;-74
2024/01/18 08:53:46;;;;;;;9.25;4.32;;;5.60;99.90;;;;;;5008238;28;20041;-74
2024/01/18 08:56:16;;;;;;;9.30;4.70;;;5.60;99.90;;;;;;5007580;28;20139;-73
2024/01/18 08:58:42;;;;;;;12.23;6.38;;;5.60;99.90;;;;;;5008837;28;20209;-75
2024/01/18 09:01:07;;;;;;;33.67;16.27;;;5.70;99.90;;;;;;4993068;28;20130;-74
2024/01/18 09:03:33;;;;;;;26.02;11.30;;;5.70;99.90;;;;;;4998257;28;20021;-74
2024/01/18 09:05:58;;;;;;;19.55;8.60;;;5.60;99.90;;;;;;5008407;28;20037;-74
2024/01/18 09:08:24;;;;;;;17.30;9.68;;;5.50;99.90;;;;;;5003235;28;20042;-74
2024/01/18 09:10:50;;;;;;;21.17;10.02;;;5.50;99.90;;;;;;5002468;28;20115;-74
2024/01/18 09:13:15;;;;;;;17.58;8.57;;;5.50;99.90;;;;;;5007658;28;20133;-74
2024/01/18 09:15:41;;;;;;;13.65;6.90;;;5.60;99.90;;;;;;5008092;28;20071;-74
2024/01/18 09:18:08;;;;;;;14.50;6.40;;;5.60;99.90;;;;;;5008281;28;20056;-74
2024/01/18 09:20:33;;;;;;;12.38;5.97;;;5.60;99.90;;;;;;5005102;28;20418;-75
2024/01/18 09:22:59;;;;;;;12.98;6.97;;;5.70;99.90;;;;;;4993233;28;20111;-74
2024/01/18 09:25:25;;;;;;;18.02;8.27;;;5.70;99.90;;;;;;5008261;28;20037;-76
2024/01/18 09:27:51;;;;;;;16.25;7.40;;;5.70;99.90;;;;;;5008212;28;20033;-75
2024/01/18 09:30:17;;;;;;;12.65;6.05;;;5.90;99.90;;;;;;5006812;28;20489;-74
2024/01/18 09:32:42;;;;;;;13.77;6.38;;;5.90;99.90;;;;;;5005984;28;20044;-75
2024/01/18 09:35:08;;;;;;;10.85;5.25;;;5.90;99.90;;;;;;5007999;28;20717;-74
2024/01/18 09:37:35;;;;;;;9.52;4.80;;;5.90;99.90;;;;;;5006360;28;20846;-74
2024/01/18 09:40:01;;;;;;;10.00;4.95;;;5.90;99.90;;;;;;5007899;28;20041;-76
2024/01/18 09:42:32;;;;;;;9.30;4.72;;;5.90;99.90;;;;;;5002024;28;20030;-75
2024/01/18 09:45:00;;;;;;;;;;;5.90;99.90;;;;;;5005144;28;20129;-74
2024/01/18 09:47:26;;;;;;;11.15;5.50;;;5.90;99.90;;;;;;5004014;28;19920;-75
2024/01/18 09:49:53;;;;;;;8.45;4.55;;;5.80;99.90;;;;;;5006002;28;20026;-74
2024/01/18 09:52:18;;;;;;;6.53;3.47;;;5.70;99.90;;;;;;5006923;28;20347;-72
2024/01/18 09:54:44;;;;;;;7.75;3.72;;;5.60;99.90;;;;;;5007952;28;20040;-74
2024/01/18 09:57:15;;;;;;;6.88;3.90;;;5.60;99.90;;;;;;5007016;28;20437;-75
2024/01/18 09:59:44;;;;;;;9.00;4.63;;;5.60;99.90;;;;;;5006971;28;20096;-74
2024/01/18 10:02:09;;;;;;;8.80;4.07;;;5.60;99.90;;;;;;5008039;28;20061;-74
2024/01/18 10:04:36;;;;;;;8.48;4.38;;;5.70;99.90;;;;;;5007158;28;20073;-74
2024/01/18 10:07:01;;;;;;;18.23;10.68;;;5.60;99.90;;;;;;5003818;28;20550;-73
2024/01/18 10:09:28;;;;;;;9.50;5.47;;;5.50;99.90;;;;;;5005679;28;20116;-75
2024/01/18 10:11:55;;;;;;;8.63;5.20;;;5.50;99.90;;;;;;5007154;28;20041;-75
2024/01/18 10:14:40;;;;;;;8.93;5.07;;;5.50;99.90;;;;;;5006841;28;20116;-73
2024/01/18 10:17:07;;;;;;;7.15;4.18;;;5.40;99.90;;;;;;5006393;28;20033;-75
2024/01/18 10:19:32;;;;;;;5.75;3.38;;;5.40;99.90;;;;;;4987741;28;20401;-75
2024/01/18 10:21:58;;;;;;;4.38;2.35;;;5.30;99.90;;;;;;5007886;28;20109;-74
2024/01/18 10:24:24;;;;;;;4.63;2.40;;;5.20;99.90;;;;;;5007701;28;20060;-74
2024/01/18 10:27:02;;;;;;;2.75;1.40;;;5.10;99.90;;;;;;5022073;28;20618;-74
2024/01/18 10:29:31;;;;;;;2.38;1.40;;;4.90;99.90;;;;;;5006550;28;20038;-74
2024/01/18 10:31:59;;;;;;;2.85;1.20;;;4.80;99.90;;;;;;5004941;28;20097;-75
2024/01/18 10:34:25;;;;;;;2.88;1.45;;;4.70;99.90;;;;;;5006779;28;20033;-74
2024/01/18 10:36:51;;;;;;;1.65;1.15;;;4.50;99.90;;;;;;5008801;28;20385;-74
2024/01/18 10:39:18;;;;;;;1.92;1.02;;;4.30;99.90;;;;;;5008398;28;20038;-74
2024/01/18 10:41:44;;;;;;;3.05;1.50;;;4.10;99.90;;;;;;5009349;28;20088;-74
2024/01/18 10:44:10;;;;;;;11.23;6.65;;;4.00;99.90;;;;;;5005634;28;20042;-75
2024/01/18 10:46:35;;;;;;;5.78;2.33;;;3.90;99.90;;;;;;4991446;28;20058;-74
2024/01/18 10:49:03;;;;;;;5.28;2.10;;;3.80;99.90;;;;;;5010172;28;20462;-74
2024/01/18 10:51:28;;;;;;;3.05;1.45;;;3.60;99.90;;;;;;5010475;28;20038;-75
2024/01/18 10:53:55;;;;;;;4.22;1.58;;;3.60;99.90;;;;;;5010588;28;20524;-75
2024/01/18 10:56:23;;;;;;;6.05;2.60;;;3.50;99.90;;;;;;5010079;28;20045;-73
2024/01/18 10:58:48;;;;;;;4.70;1.67;;;3.50;99.90;;;;;;4997786;28;20127;-74
2024/01/18 11:01:15;;;;;;;3.50;1.50;;;3.40;99.90;;;;;;5010619;28;20061;-74
2024/01/18 11:03:43;;;;;;;2.20;1.50;;;3.40;99.90;;;;;;5008585;28;20127;-73
2024/01/18 11:06:12;;;;;;;4.50;2.00;;;3.30;99.90;;;;;;5022451;28;20029;-73
2024/01/18 11:08:40;;;;;;;2.40;1.05;;;3.20;99.90;;;;;;5023835;28;20034;-75
2024/01/18 11:11:06;;;;;;;2.75;1.25;;;3.10;99.90;;;;;;5007236;28;20506;-75
2024/01/18 11:13:33;;;;;;;16.85;10.65;;;3.00;99.90;;;;;;5008045;28;20030;-74
2024/01/18 11:15:59;;;;;;;2.83;1.42;;;2.70;99.90;;;;;;5009822;28;20042;-74
2024/01/18 11:18:24;;;;;;;6.32;3.22;;;2.60;99.90;;;;;;5010599;28;20432;-72
2024/01/18 11:21:06;;;;;;;3.80;2.20;;;2.60;99.90;;;;;;5010224;28;20049;-74
2024/01/18 11:23:39;;;;;;;4.43;1.98;;;2.70;99.90;;;;;;5007819;28;20246;-74
2024/01/18 11:26:26;;;;;;;5.70;3.35;;;2.70;99.90;;;;;;5010901;28;20494;-74
2024/01/18 11:29:24;;;;;;;3.33;1.90;;;2.60;99.90;;;;;;5008881;28;20083;-74
2024/01/18 11:31:50;;;;;;;4.47;1.70;;;2.50;99.90;;;;;;4996347;28;20465;-74
2024/01/18 11:34:44;;;;;;;3.30;1.80;;;2.50;99.90;;;;;;5009817;28;20041;-73
2024/01/18 11:37:18;;;;;;;3.58;1.73;;;2.40;99.90;;;;;;5006071;28;20029;-74
2024/01/18 11:39:47;;;;;;;3.08;1.50;;;2.40;99.90;;;;;;5007519;28;20494;-75
2024/01/18 11:42:21;;;;;;;3.10;1.60;;;2.40;99.90;;;;;;5007441;28;20042;-74
2024/01/18 11:44:59;;;;;;;2.28;1.30;;;2.40;99.90;;;;;;5009371;28;20116;-74
2024/01/18 11:47:29;;;;;;;3.80;1.40;;;2.50;99.90;;;;;;5004961;28;20036;-73
2024/01/18 11:49:54;;;;;;;3.67;1.77;;;2.50;99.90;;;;;;5009023;28;20040;-74
2024/01/18 11:52:24;;;;;;;3.85;1.67;;;2.50;99.90;;;;;;5009502;28;20037;-74
2024/01/18 11:54:55;;;;;;;4.05;1.80;;;2.50;99.90;;;;;;5009162;28;20048;-74
2024/01/18 11:57:22;;;;;;;2.60;1.48;;;2.40;99.90;;;;;;5024544;28;20473;-74
2024/01/18 11:59:48;;;;;;;2.53;1.23;;;2.30;99.90;;;;;;5009097;28;20038;-74
2024/01/18 12:02:14;;;;;;;3.50;1.48;;;2.30;99.90;;;;;;5008854;28;20026;-74
2024/01/18 12:04:40;;;;;;;4.05;1.50;;;2.40;99.90;;;;;;5006059;28;20088;-74
2024/01/18 12:07:07;;;;;;;3.08;1.40;;;2.40;99.90;;;;;;5006532;28;20106;-73
2024/01/18 12:09:34;;;;;;;3.50;1.50;;;2.40;99.90;;;;;;5009862;28;20046;-73
2024/01/18 12:12:00;;;;;;;3.67;1.88;;;2.40;99.90;;;;;;5009347;28;20038;-73
2024/01/18 12:14:26;;;;;;;4.57;1.90;;;2.30;99.90;;;;;;5007531;28;20449;-74
2024/01/18 12:16:53;;;;;;;4.07;1.90;;;2.20;99.90;;;;;;5009389;28;20042;-74
2024/01/18 12:19:36;;;;;;;3.05;1.23;;;2.10;99.90;;;;;;5009318;28;20033;-73
2024/01/18 12:22:05;;;;;;;2.47;1.20;;;2.00;99.90;;;;;;5009009;28;20117;-74
2024/01/18 12:24:32;;;;;;;2.42;1.48;;;1.90;99.90;;;;;;4999699;28;20076;-74
2024/01/18 12:26:58;;;;;;;3.25;1.17;;;1.90;99.90;;;;;;4998065;28;20030;-73
2024/01/18 12:29:24;;;;;;;2.30;1.20;;;2.00;99.90;;;;;;4995105;28;20041;-74
2024/01/18 12:31:50;;;;;;;1.77;1.00;;;2.10;99.90;;;;;;5009307;28;20029;-74
2024/01/18 12:34:19;;;;;;;3.60;1.60;;;2.20;99.90;;;;;;5005979;28;20482;-74
2024/01/18 12:36:46;;;;;;;3.33;1.52;;;2.30;99.90;;;;;;5008489;28;20890;-75
2024/01/18 12:39:18;;;;;;;3.40;1.90;;;2.40;99.90;;;;;;5009192;28;20108;-74
2024/01/18 12:41:45;;;;;;;2.60;1.50;;;2.40;99.90;;;;;;5006745;28;20489;-74
2024/01/18 12:44:11;;;;;;;2.63;1.30;;;2.30;99.90;;;;;;4993813;28;20612;-74
2024/01/18 12:46:39;;;;;;;2.55;1.23;;;2.30;99.90;;;;;;5004405;28;20040;-74
2024/01/18 12:49:05;;;;;;;2.53;1.13;;;2.30;99.90;;;;;;5006764;28;20038;-74
2024/01/18 12:51:32;;;;;;;2.33;1.15;;;2.30;99.90;;;;;;5006950;28;20038;-74